Mega Smeralda — ICIU — position and weather

sailwx.info

Track history (hours):
 
Tides and Currents Weather Stations Pressure Air Temp Water Temp Dewpoint Dewpoint Depression Visibility Wind Speed Wind Dir Waves Ship Positions

Mega Smeralda

Last reported at 2018-Apr-23 23:00 UTC. Time now 2018-Apr-23 23:27 UTC.
Position N 42°32' E 007°00'.

Length 171 m; draft 6.4 m.

Type: Passenger vessel. MMSI: 247228600.

Date/timePositionNaut miles runAvg speedWind from/ knotsBaromVisibWave heightAir tempDewpointWater temp
2018-Apr-23 23:00N 42°32' E 007°00'5615.8
2018-Apr-23 19:29N 43°04' E 005°59'4 7.3
2018-Apr-23 19:00N 43°07' E 005°56'0 0.4
2018-Apr-23 18:30N 43°07' E 005°56'0 0.0
2018-Apr-23 18:00N 43°07' E 005°56'0 0.0
2018-Apr-23 17:30N 43°07' E 005°56'0 0.0
2018-Apr-23 17:00N 43°07' E 005°56'0 0.0
2018-Apr-23 16:30N 43°07' E 005°56'0 0.0
2018-Apr-23 16:00N 43°07' E 005°56'0 0.0
2018-Apr-23 15:30N 43°07' E 005°56'0 0.0
2018-Apr-23 15:00N 43°07' E 005°56'0 0.0
2018-Apr-23 14:30N 43°07' E 005°56'0 0.0
2018-Apr-23 14:00N 43°07' E 005°56'0 0.0
2018-Apr-23 13:30N 43°07' E 005°56'0 0.0
2018-Apr-23 12:57N 43°07' E 005°56'0 0.0
2018-Apr-23 12:30N 43°07' E 005°56'0 0.0
2018-Apr-23 12:00N 43°07' E 005°56'0 0.0
2018-Apr-23 11:30N 43°07' E 005°56'0 0.0
2018-Apr-23 11:00N 43°07' E 005°56'0 0.0
2018-Apr-23 10:30N 43°07' E 005°56'0 0.0
2018-Apr-23 10:00N 43°07' E 005°56'0 0.0
2018-Apr-23 09:30N 43°07' E 005°56'0 0.0
2018-Apr-23 09:00N 43°07' E 005°56'0 0.0
2018-Apr-23 08:30N 43°07' E 005°56'0 0.0
2018-Apr-23 08:00N 43°07' E 005°56'0 0.0
2018-Apr-23 07:30N 43°07' E 005°56'0 0.0
2018-Apr-23 07:00N 43°07' E 005°56'0 0.0
2018-Apr-23 06:30N 43°07' E 005°56'0 0.0
2018-Apr-23 06:00N 43°07' E 005°56'0 0.0
2018-Apr-23 05:30N 43°07' E 005°56'0 0.0
2018-Apr-23 05:00N 43°07' E 005°56'3 5.8
2018-Apr-23 04:30N 43°05' E 005°58'714.1
2018-Apr-23 04:00N 42°59' E 006°04'714.4
2018-Apr-23 03:31N 42°55' E 006°12'815.0
2018-Apr-23 02:59N 42°50' E 006°20'715.5
2018-Apr-23 02:31N 42°46' E 006°29'714.5
2018-Apr-23 02:01N 42°42' E 006°37'714.2
2018-Apr-23 01:30N 42°39' E 006°46'714.1
2018-Apr-23 01:01N 42°35' E 006°54'714.0
2018-Apr-23 00:30N 42°31' E 007°02'813.9
2018-Apr-22 23:57N 42°27' E 007°11'713.9
2018-Apr-22 23:27N 42°24' E 007°19'613.9
2018-Apr-22 23:00N 42°20' E 007°26'714.0
2018-Apr-22 22:31N 42°17' E 007°34'1013.5
2018-Apr-22 21:46N 42°11' E 007°45'413.9
2018-Apr-22 21:30N 42°09' E 007°49'713.8
2018-Apr-22 21:00N 42°06' E 007°57'713.9
2018-Apr-22 20:30N 42°02' E 008°05'814.0
2018-Apr-22 19:58N 41°58' E 008°14'32 4.0
2018-Apr-22 11:58N 42°15' E 007°37'919.7
2018-Apr-22 11:30N 42°20' E 007°27'1019.6
2018-Apr-22 11:00N 42°25' E 007°16'1019.5
2018-Apr-22 10:30N 42°30' E 007°04'1019.6
2018-Apr-22 10:00N 42°35' E 006°53'1019.8
2018-Apr-22 09:30N 42°41' E 006°42'1019.9
2018-Apr-22 09:00N 42°46' E 006°31'3019.2
2018-Apr-22 07:27N 43°04' E 005°58'3 6.6
2018-Apr-22 06:58N 43°07' E 005°56'0 0.0
2018-Apr-22 06:28N 43°07' E 005°56'0 0.0
2018-Apr-22 05:55N 43°07' E 005°56'2 4.2
2018-Apr-22 05:31N 43°05' E 005°56'813.6
2018-Apr-22 04:57N 42°59' E 006°03'815.8
2018-Apr-22 04:28N 42°55' E 006°11'715.9
2018-Apr-22 04:00N 42°51' E 006°19'612.8
2018-Apr-22 03:30N 42°48' E 006°27'612.6
2018-Apr-22 03:00N 42°45' E 006°34'612.4
2018-Apr-22 02:30N 42°41' E 006°42'612.8
2018-Apr-22 02:00N 42°38' E 006°49'712.8
2018-Apr-22 01:29N 42°34' E 006°56'712.8
2018-Apr-22 00:57N 42°30' E 007°04'612.7
2018-Apr-22 00:30N 42°27' E 007°11'612.7
2018-Apr-22 00:00N 42°24' E 007°18'612.8
2018-Apr-21 23:30N 42°21' E 007°26'612.3
2018-Apr-21 23:00N 42°18' E 007°33'612.5
2018-Apr-21 22:30N 42°14' E 007°40'612.4
2018-Apr-21 22:01N 42°11' E 007°47'612.6
2018-Apr-21 21:30N 42°07' E 007°54'812.7
2018-Apr-21 20:54N 42°03' E 008°02'612.7
2018-Apr-21 20:26N 41°60' E 008°09'116 8.5
2018-Apr-21 06:44N 43°04' E 005°58'311.9
2018-Apr-21 06:30N 43°06' E 005°55'2 2.9
2018-Apr-21 05:58N 43°07' E 005°56'0 0.0
2018-Apr-21 05:28N 43°07' E 005°56'2 3.6
2018-Apr-21 05:01N 43°05' E 005°55'5217.9
2018-Apr-21 02:08N 42°58' E 007°05'319.8
2018-Apr-21 02:00N 42°58' E 007°09'1019.9
2018-Apr-21 01:28N 42°59' E 007°23'3519.7
2018-Apr-20 23:43N 43°01' E 008°10'420.3
2018-Apr-20 23:30N 43°02' E 008°16'1020.1
2018-Apr-20 23:00N 43°02' E 008°30'1019.7
2018-Apr-20 22:30N 43°04' E 008°43'1019.4
2018-Apr-20 22:00N 43°05' E 008°56'1019.0
2018-Apr-20 21:30N 43°05' E 009°09'1019.0
2018-Apr-20 21:00N 43°05' E 009°22'917.2
2018-Apr-20 20:30N 43°00' E 009°32'917.6
2018-Apr-20 19:59N 42°51' E 009°34'5 1.7
2018-Apr-20 17:10N 42°48' E 009°39'319.3
2018-Apr-20 17:00N 42°50' E 009°42'1019.2
2018-Apr-20 16:30N 42°56' E 009°53'918.8
2018-Apr-20 16:00N 43°04' E 009°59'1019.6
2018-Apr-20 15:30N 43°14' E 010°04'1019.7
2018-Apr-20 15:00N 43°23' E 010°08'918.1
2018-Apr-20 14:30N 43°31' E 010°13'4 7.5
2018-Apr-20 13:58N 43°33' E 010°18'0 0.0
2018-Apr-20 13:28N 43°33' E 010°18'0 0.0
2018-Apr-20 12:55N 43°33' E 010°18'0 0.0
2018-Apr-20 12:28N 43°33' E 010°18'1 2.7
2018-Apr-20 12:00N 43°32' E 010°17'815.9
2018-Apr-20 11:30N 43°25' E 010°11'1019.5
2018-Apr-20 11:00N 43°16' E 010°06'1019.6
2018-Apr-20 10:30N 43°07' E 010°01'1019.6
2018-Apr-20 10:00N 42°58' E 009°56'1019.7
2018-Apr-20 09:30N 42°52' E 009°46'12 2.0
2018-Apr-20 03:46N 42°59' E 009°33'918.1
2018-Apr-20 03:16N 43°04' E 009°23'819.7
2018-Apr-20 02:50N 43°04' E 009°11'719.9
2018-Apr-20 02:29N 43°04' E 009°02'920.0
2018-Apr-20 02:00N 43°03' E 008°49'12518.4
2018-Apr-19 19:14N 43°04' E 005°58'311.2
2018-Apr-19 19:00N 43°06' E 005°55'1 2.5
2018-Apr-19 18:28N 43°07' E 005°56'0 0.0
2018-Apr-19 17:58N 43°07' E 005°56'0 0.0
2018-Apr-19 17:28N 43°07' E 005°56'0 0.0
2018-Apr-19 16:58N 43°07' E 005°56'0 0.0
2018-Apr-19 16:28N 43°07' E 005°56'0 0.0
2018-Apr-19 15:55N 43°07' E 005°56'0 0.0
2018-Apr-19 15:28N 43°07' E 005°56'0 0.0
2018-Apr-19 14:58N 43°07' E 005°56'0 0.0
2018-Apr-19 14:28N 43°07' E 005°56'0 0.0
2018-Apr-19 13:58N 43°07' E 005°56'0 0.0
2018-Apr-19 13:28N 43°07' E 005°56'0 0.0
2018-Apr-19 12:58N 43°07' E 005°56'0 0.0
2018-Apr-19 12:28N 43°07' E 005°56'0 0.0
2018-Apr-19 11:58N 43°07' E 005°56'0 0.0
2018-Apr-19 11:28N 43°07' E 005°56'0 0.0
2018-Apr-19 10:58N 43°07' E 005°56'0 0.0
2018-Apr-19 10:28N 43°07' E 005°56'0 0.0
2018-Apr-19 09:58N 43°07' E 005°56'0 0.0
2018-Apr-19 09:28N 43°07' E 005°56'0 0.0
2018-Apr-19 08:58N 43°07' E 005°56'0 0.0
2018-Apr-19 08:28N 43°07' E 005°56'0 0.0
2018-Apr-19 07:58N 43°07' E 005°56'0 0.0
2018-Apr-19 07:28N 43°07' E 005°56'0 0.0
2018-Apr-19 06:58N 43°07' E 005°56'0 0.0
2018-Apr-19 06:28N 43°07' E 005°56'0 0.0
2018-Apr-19 05:58N 43°07' E 005°56'0 0.0
2018-Apr-19 05:28N 43°07' E 005°56'0 0.1
2018-Apr-19 05:01N 43°07' E 005°56'5114.4
2018-Apr-19 01:29N 42°57' E 007°04'6917.2
2018-Apr-18 21:28N 43°02' E 008°38'1017.9
2018-Apr-18 20:53N 43°03' E 008°52'717.7
2018-Apr-18 20:30N 43°03' E 009°02'918.2
2018-Apr-18 20:00N 43°04' E 009°14'918.5
2018-Apr-18 19:30N 43°04' E 009°27'18 1.2
2018-Apr-18 04:21N 42°47' E 009°35'719.5
2018-Apr-18 04:00N 42°54' E 009°34'1218.4
2018-Apr-18 03:22N 43°04' E 009°26'719.1
2018-Apr-18 03:00N 43°04' E 009°17'1019.5
2018-Apr-18 02:30N 43°04' E 009°04'1019.7
2018-Apr-18 02:00N 43°03' E 008°50'1019.5
2018-Apr-18 01:30N 43°02' E 008°37'919.2
2018-Apr-18 01:00N 43°01' E 008°24'1218.8
2018-Apr-18 00:23N 43°01' E 008°08'719.4
2018-Apr-18 00:00N 43°00' E 007°58'8718.6
2018-Apr-17 19:18N 43°04' E 005°58'310.7
2018-Apr-17 19:00N 43°06' E 005°55'1 1.1
2018-Apr-17 18:30N 43°07' E 005°56'0 0.0
2018-Apr-17 18:00N 43°07' E 005°56'0 0.0
2018-Apr-17 17:30N 43°07' E 005°56'0 0.0
2018-Apr-17 17:00N 43°07' E 005°56'0 0.0
2018-Apr-17 16:30N 43°07' E 005°56'0 0.0
2018-Apr-17 16:00N 43°07' E 005°56'0 0.0
2018-Apr-17 15:30N 43°07' E 005°56'0 0.0
2018-Apr-17 15:00N 43°07' E 005°56'0 0.0
2018-Apr-17 14:30N 43°07' E 005°56'0 0.0
2018-Apr-17 14:00N 43°07' E 005°56'0 0.0
2018-Apr-17 13:30N 43°07' E 005°56'0 0.0
2018-Apr-17 13:00N 43°07' E 005°56'0 0.0
2018-Apr-17 12:30N 43°07' E 005°56'0 0.0
2018-Apr-17 12:00N 43°07' E 005°56'0 0.0
2018-Apr-17 11:30N 43°07' E 005°56'0 0.0
2018-Apr-17 11:00N 43°07' E 005°56'0 0.0
2018-Apr-17 10:30N 43°07' E 005°56'0 0.0
2018-Apr-17 10:00N 43°07' E 005°56'0 0.0
2018-Apr-17 09:30N 43°07' E 005°56'0 0.0
2018-Apr-17 09:00N 43°07' E 005°56'0 0.0
2018-Apr-17 08:30N 43°07' E 005°56'0 0.0
2018-Apr-17 08:00N 43°07' E 005°56'0 0.0
2018-Apr-17 07:30N 43°07' E 005°56'0 0.0
2018-Apr-17 07:00N 43°07' E 005°56'0 0.0
2018-Apr-17 06:30N 43°07' E 005°56'0 0.0
2018-Apr-17 06:00N 43°07' E 005°56'0 0.0
2018-Apr-17 05:30N 43°07' E 005°56'0 0.1
2018-Apr-17 05:00N 43°07' E 005°56'911.1
2018-Apr-17 04:10N 42°59' E 006°03'417.2
2018-Apr-17 03:54N 42°57' E 006°08'716.7
2018-Apr-17 03:30N 42°56' E 006°17'816.6
2018-Apr-17 03:00N 42°56' E 006°28'917.2
2018-Apr-17 02:30N 42°56' E 006°40'918.3
2018-Apr-17 02:00N 42°57' E 006°52'918.6
2018-Apr-17 01:30N 42°58' E 007°05'918.3
2018-Apr-17 01:00N 42°59' E 007°17'918.0
2018-Apr-17 00:30N 42°60' E 007°30'918.1
2018-Apr-17 00:00N 43°00' E 007°42'918.0
2018-Apr-16 23:30N 43°00' E 007°54'917.8
2018-Apr-16 23:00N 43°01' E 008°06'919.0
2018-Apr-16 22:30N 43°01' E 008°19'918.8
2018-Apr-16 22:00N 43°02' E 008°32'918.3
2018-Apr-16 21:30N 43°02' E 008°45'918.1
2018-Apr-16 21:00N 43°03' E 008°57'917.9
2018-Apr-16 20:30N 43°03' E 009°09'918.1
2018-Apr-16 20:00N 43°04' E 009°22'917.0
2018-Apr-16 19:30N 43°01' E 009°32'918.9
2018-Apr-16 19:00N 42°51' E 009°34'1116.5
2018-Apr-16 18:22N 42°42' E 009°28'0 0.1
2018-Apr-16 16:14N 42°42' E 009°27'313.5
2018-Apr-16 16:01N 42°43' E 009°31'1019.3
2018-Apr-16 15:31N 42°49' E 009°41'1019.7
2018-Apr-16 15:00N 42°56' E 009°52'918.9
2018-Apr-16 14:31N 43°03' E 009°59'1019.9
2018-Apr-16 14:01N 43°13' E 010°03'1019.8
2018-Apr-16 13:31N 43°22' E 010°07'1019.2
2018-Apr-16 13:01N 43°31' E 010°13'4 8.7
2018-Apr-16 12:30N 43°33' E 010°18'0 0.0
2018-Apr-16 12:00N 43°33' E 010°18'0 0.0
2018-Apr-16 11:30N 43°33' E 010°18'0 0.0
2018-Apr-16 11:00N 43°33' E 010°18'0 0.0
2018-Apr-16 10:30N 43°33' E 010°18'1 2.5
2018-Apr-16 10:00N 43°32' E 010°17'713.2
2018-Apr-16 09:30N 43°27' E 010°12'1019.5
2018-Apr-16 09:00N 43°17' E 010°08'1019.4
2018-Apr-16 08:30N 43°08' E 010°03'1019.2
2018-Apr-16 08:00N 42°59' E 009°57'1019.2
2018-Apr-16 07:30N 42°53' E 009°48'11 2.8
2018-Apr-16 03:42N 42°55' E 009°34'419.6
2018-Apr-16 03:30N 42°59' E 009°33'918.1
2018-Apr-16 03:00N 43°04' E 009°22'1019.8
2018-Apr-16 02:30N 43°04' E 009°09'1019.9
2018-Apr-16 01:59N 43°03' E 008°55'5519.6
2018-Apr-15 23:09N 42°59' E 007°39'7418.8
2018-Apr-15 19:12N 43°04' E 005°58'212.3
2018-Apr-15 19:01N 43°05' E 005°55'2 3.1
2018-Apr-15 18:29N 43°07' E 005°56'0 0.0
2018-Apr-15 18:00N 43°07' E 005°56'0 0.0
2018-Apr-15 17:29N 43°07' E 005°56'0 0.0
2018-Apr-15 17:00N 43°07' E 005°56'0 0.0
2018-Apr-15 16:30N 43°07' E 005°56'0 0.0
2018-Apr-15 16:00N 43°07' E 005°56'0 0.0
2018-Apr-15 15:30N 43°07' E 005°56'0 0.0
2018-Apr-15 14:59N 43°07' E 005°56'0 0.0
2018-Apr-15 14:29N 43°07' E 005°56'0 0.0
2018-Apr-15 14:00N 43°07' E 005°56'0 0.0
2018-Apr-15 13:30N 43°07' E 005°56'0 0.0
2018-Apr-15 12:59N 43°07' E 005°56'0 0.0
2018-Apr-15 12:29N 43°07' E 005°56'0 0.0
2018-Apr-15 11:59N 43°07' E 005°56'0 0.0
2018-Apr-15 11:29N 43°07' E 005°56'0 0.0
2018-Apr-15 10:59N 43°07' E 005°56'0 0.0
2018-Apr-15 10:29N 43°07' E 005°56'0 0.0
2018-Apr-15 09:59N 43°07' E 005°56'0 0.0
2018-Apr-15 09:29N 43°07' E 005°56'0 0.0
2018-Apr-15 09:00N 43°07' E 005°56'0 0.0
2018-Apr-15 08:29N 43°07' E 005°56'0 0.0
2018-Apr-15 07:59N 43°07' E 005°56'0 0.0
2018-Apr-15 07:29N 43°07' E 005°56'0 0.0
2018-Apr-15 06:59N 43°07' E 005°56'0 0.0
2018-Apr-15 06:29N 43°07' E 005°56'0 0.3
2018-Apr-15 06:00N 43°07' E 005°56'4812.6
2018-Apr-15 02:13N 43°09' E 007°01'314.6
2018-Apr-15 02:00N 43°11' E 007°04'714.7
2018-Apr-15 01:30N 43°14' E 007°13'815.1
2018-Apr-15 01:01N 43°17' E 007°23'815.1
2018-Apr-15 00:30N 43°21' E 007°32'1116.7
2018-Apr-14 23:49N 43°27' E 007°46'917.0
2018-Apr-14 23:19N 43°31' E 007°56'618.2
2018-Apr-14 22:59N 43°34' E 008°03'1020.2
2018-Apr-14 22:30N 43°29' E 008°15'1020.1
2018-Apr-14 22:00N 43°24' E 008°26'1019.6
2018-Apr-14 21:30N 43°19' E 008°38'1019.1
2018-Apr-14 21:00N 43°14' E 008°50'919.2
2018-Apr-14 20:31N 43°10' E 009°01'1019.1
2018-Apr-14 20:00N 43°06' E 009°13'1019.6
2018-Apr-14 19:31N 43°04' E 009°26'918.5
2018-Apr-14 19:00N 42°56' E 009°34'15 1.1
2018-Apr-14 05:04N 42°42' E 009°28'617.6
2018-Apr-14 04:43N 42°46' E 009°33'419.1
2018-Apr-14 04:30N 42°51' E 009°34'1019.5
2018-Apr-14 04:00N 43°00' E 009°33'918.3
2018-Apr-14 03:30N 43°04' E 009°21'1119.2
2018-Apr-14 02:55N 43°04' E 009°06'1219.3
2018-Apr-14 02:18N 43°03' E 008°50'518.8
2018-Apr-14 02:00N 43°03' E 008°42'918.5
2018-Apr-14 01:30N 43°02' E 008°29'918.3
2018-Apr-14 01:00N 43°01' E 008°17'918.6
2018-Apr-14 00:30N 43°01' E 008°04'918.8
2018-Apr-14 00:00N 43°01' E 007°51'918.7
2018-Apr-13 23:30N 43°01' E 007°39'  
Track history (hours):
 
Tides and Currents Weather Stations Pressure Air Temp Water Temp Dewpoint Dewpoint Depression Visibility Wind Speed Wind Dir Waves Ship Positions

Mega Smeralda

Last reported at 2018-Apr-23 23:00 UTC. Time now 2018-Apr-23 23:27 UTC.
Position N 42°32' E 007°00'.

Length 171 m; draft 6.4 m.

Type: Passenger vessel. MMSI: 247228600.

Date/timePositionNaut miles runAvg speedWind from/ knotsBaromVisibWave heightAir tempDewpointWater temp
2018-Apr-23 23:00N 42°32' E 007°00'5615.8
2018-Apr-23 19:29N 43°04' E 005°59'4 7.3
2018-Apr-23 19:00N 43°07' E 005°56'0 0.4
2018-Apr-23 18:30N 43°07' E 005°56'0 0.0
2018-Apr-23 18:00N 43°07' E 005°56'0 0.0
2018-Apr-23 17:30N 43°07' E 005°56'0 0.0
2018-Apr-23 17:00N 43°07' E 005°56'0 0.0
2018-Apr-23 16:30N 43°07' E 005°56'0 0.0
2018-Apr-23 16:00N 43°07' E 005°56'0 0.0
2018-Apr-23 15:30N 43°07' E 005°56'0 0.0
2018-Apr-23 15:00N 43°07' E 005°56'0 0.0
2018-Apr-23 14:30N 43°07' E 005°56'0 0.0
2018-Apr-23 14:00N 43°07' E 005°56'0 0.0
2018-Apr-23 13:30N 43°07' E 005°56'0 0.0
2018-Apr-23 12:57N 43°07' E 005°56'0 0.0
2018-Apr-23 12:30N 43°07' E 005°56'0 0.0
2018-Apr-23 12:00N 43°07' E 005°56'0 0.0
2018-Apr-23 11:30N 43°07' E 005°56'0 0.0
2018-Apr-23 11:00N 43°07' E 005°56'0 0.0
2018-Apr-23 10:30N 43°07' E 005°56'0 0.0
2018-Apr-23 10:00N 43°07' E 005°56'0 0.0
2018-Apr-23 09:30N 43°07' E 005°56'0 0.0
2018-Apr-23 09:00N 43°07' E 005°56'0 0.0
2018-Apr-23 08:30N 43°07' E 005°56'0 0.0
2018-Apr-23 08:00N 43°07' E 005°56'0 0.0
2018-Apr-23 07:30N 43°07' E 005°56'0 0.0
2018-Apr-23 07:00N 43°07' E 005°56'0 0.0
2018-Apr-23 06:30N 43°07' E 005°56'0 0.0
2018-Apr-23 06:00N 43°07' E 005°56'0 0.0
2018-Apr-23 05:30N 43°07' E 005°56'0 0.0
2018-Apr-23 05:00N 43°07' E 005°56'3 5.8
2018-Apr-23 04:30N 43°05' E 005°58'714.1
2018-Apr-23 04:00N 42°59' E 006°04'714.4
2018-Apr-23 03:31N 42°55' E 006°12'815.0
2018-Apr-23 02:59N 42°50' E 006°20'715.5
2018-Apr-23 02:31N 42°46' E 006°29'714.5
2018-Apr-23 02:01N 42°42' E 006°37'714.2
2018-Apr-23 01:30N 42°39' E 006°46'714.1
2018-Apr-23 01:01N 42°35' E 006°54'714.0
2018-Apr-23 00:30N 42°31' E 007°02'813.9
2018-Apr-22 23:57N 42°27' E 007°11'713.9
2018-Apr-22 23:27N 42°24' E 007°19'613.9
2018-Apr-22 23:00N 42°20' E 007°26'714.0
2018-Apr-22 22:31N 42°17' E 007°34'1013.5
2018-Apr-22 21:46N 42°11' E 007°45'413.9
2018-Apr-22 21:30N 42°09' E 007°49'713.8
2018-Apr-22 21:00N 42°06' E 007°57'713.9
2018-Apr-22 20:30N 42°02' E 008°05'814.0
2018-Apr-22 19:58N 41°58' E 008°14'32 4.0
2018-Apr-22 11:58N 42°15' E 007°37'919.7
2018-Apr-22 11:30N 42°20' E 007°27'1019.6
2018-Apr-22 11:00N 42°25' E 007°16'1019.5
2018-Apr-22 10:30N 42°30' E 007°04'1019.6
2018-Apr-22 10:00N 42°35' E 006°53'1019.8
2018-Apr-22 09:30N 42°41' E 006°42'1019.9
2018-Apr-22 09:00N 42°46' E 006°31'3019.2
2018-Apr-22 07:27N 43°04' E 005°58'3 6.6
2018-Apr-22 06:58N 43°07' E 005°56'0 0.0
2018-Apr-22 06:28N 43°07' E 005°56'0 0.0
2018-Apr-22 05:55N 43°07' E 005°56'2 4.2
2018-Apr-22 05:31N 43°05' E 005°56'813.6
2018-Apr-22 04:57N 42°59' E 006°03'815.8
2018-Apr-22 04:28N 42°55' E 006°11'715.9
2018-Apr-22 04:00N 42°51' E 006°19'612.8
2018-Apr-22 03:30N 42°48' E 006°27'612.6
2018-Apr-22 03:00N 42°45' E 006°34'612.4
2018-Apr-22 02:30N 42°41' E 006°42'612.8
2018-Apr-22 02:00N 42°38' E 006°49'712.8
2018-Apr-22 01:29N 42°34' E 006°56'712.8
2018-Apr-22 00:57N 42°30' E 007°04'612.7
2018-Apr-22 00:30N 42°27' E 007°11'612.7
2018-Apr-22 00:00N 42°24' E 007°18'612.8
2018-Apr-21 23:30N 42°21' E 007°26'612.3
2018-Apr-21 23:00N 42°18' E 007°33'612.5
2018-Apr-21 22:30N 42°14' E 007°40'612.4
2018-Apr-21 22:01N 42°11' E 007°47'612.6
2018-Apr-21 21:30N 42°07' E 007°54'812.7
2018-Apr-21 20:54N 42°03' E 008°02'612.7
2018-Apr-21 20:26N 41°60' E 008°09'116 8.5
2018-Apr-21 06:44N 43°04' E 005°58'311.9
2018-Apr-21 06:30N 43°06' E 005°55'2 2.9
2018-Apr-21 05:58N 43°07' E 005°56'0 0.0
2018-Apr-21 05:28N 43°07' E 005°56'2 3.6
2018-Apr-21 05:01N 43°05' E 005°55'5217.9
2018-Apr-21 02:08N 42°58' E 007°05'319.8
2018-Apr-21 02:00N 42°58' E 007°09'1019.9
2018-Apr-21 01:28N 42°59' E 007°23'3519.7
2018-Apr-20 23:43N 43°01' E 008°10'420.3
2018-Apr-20 23:30N 43°02' E 008°16'1020.1
2018-Apr-20 23:00N 43°02' E 008°30'1019.7
2018-Apr-20 22:30N 43°04' E 008°43'1019.4
2018-Apr-20 22:00N 43°05' E 008°56'1019.0
2018-Apr-20 21:30N 43°05' E 009°09'1019.0
2018-Apr-20 21:00N 43°05' E 009°22'917.2
2018-Apr-20 20:30N 43°00' E 009°32'917.6
2018-Apr-20 19:59N 42°51' E 009°34'5 1.7
2018-Apr-20 17:10N 42°48' E 009°39'319.3
2018-Apr-20 17:00N 42°50' E 009°42'1019.2
2018-Apr-20 16:30N 42°56' E 009°53'918.8
2018-Apr-20 16:00N 43°04' E 009°59'1019.6
2018-Apr-20 15:30N 43°14' E 010°04'1019.7
2018-Apr-20 15:00N 43°23' E 010°08'918.1
2018-Apr-20 14:30N 43°31' E 010°13'4 7.5
2018-Apr-20 13:58N 43°33' E 010°18'0 0.0
2018-Apr-20 13:28N 43°33' E 010°18'0 0.0
2018-Apr-20 12:55N 43°33' E 010°18'0 0.0
2018-Apr-20 12:28N 43°33' E 010°18'1 2.7
2018-Apr-20 12:00N 43°32' E 010°17'815.9
2018-Apr-20 11:30N 43°25' E 010°11'1019.5
2018-Apr-20 11:00N 43°16' E 010°06'1019.6
2018-Apr-20 10:30N 43°07' E 010°01'1019.6
2018-Apr-20 10:00N 42°58' E 009°56'1019.7
2018-Apr-20 09:30N 42°52' E 009°46'12 2.0
2018-Apr-20 03:46N 42°59' E 009°33'918.1
2018-Apr-20 03:16N 43°04' E 009°23'819.7
2018-Apr-20 02:50N 43°04' E 009°11'719.9
2018-Apr-20 02:29N 43°04' E 009°02'920.0
2018-Apr-20 02:00N 43°03' E 008°49'12518.4
2018-Apr-19 19:14N 43°04' E 005°58'311.2
2018-Apr-19 19:00N 43°06' E 005°55'1 2.5
2018-Apr-19 18:28N 43°07' E 005°56'0 0.0
2018-Apr-19 17:58N 43°07' E 005°56'0 0.0
2018-Apr-19 17:28N 43°07' E 005°56'0 0.0
2018-Apr-19 16:58N 43°07' E 005°56'0 0.0
2018-Apr-19 16:28N 43°07' E 005°56'0 0.0
2018-Apr-19 15:55N 43°07' E 005°56'0 0.0
2018-Apr-19 15:28N 43°07' E 005°56'0 0.0
2018-Apr-19 14:58N 43°07' E 005°56'0 0.0
2018-Apr-19 14:28N 43°07' E 005°56'0 0.0
2018-Apr-19 13:58N 43°07' E 005°56'0 0.0
2018-Apr-19 13:28N 43°07' E 005°56'0 0.0
2018-Apr-19 12:58N 43°07' E 005°56'0 0.0
2018-Apr-19 12:28N 43°07' E 005°56'0 0.0
2018-Apr-19 11:58N 43°07' E 005°56'0 0.0
2018-Apr-19 11:28N 43°07' E 005°56'0 0.0
2018-Apr-19 10:58N 43°07' E 005°56'0 0.0
2018-Apr-19 10:28N 43°07' E 005°56'0 0.0
2018-Apr-19 09:58N 43°07' E 005°56'0 0.0
2018-Apr-19 09:28N 43°07' E 005°56'0 0.0
2018-Apr-19 08:58N 43°07' E 005°56'0 0.0
2018-Apr-19 08:28N 43°07' E 005°56'0 0.0
2018-Apr-19 07:58N 43°07' E 005°56'0 0.0
2018-Apr-19 07:28N 43°07' E 005°56'0 0.0
2018-Apr-19 06:58N 43°07' E 005°56'0 0.0
2018-Apr-19 06:28N 43°07' E 005°56'0 0.0
2018-Apr-19 05:58N 43°07' E 005°56'0 0.0
2018-Apr-19 05:28N 43°07' E 005°56'0 0.1
2018-Apr-19 05:01N 43°07' E 005°56'5114.4
2018-Apr-19 01:29N 42°57' E 007°04'6917.2
2018-Apr-18 21:28N 43°02' E 008°38'1017.9
2018-Apr-18 20:53N 43°03' E 008°52'717.7
2018-Apr-18 20:30N 43°03' E 009°02'918.2
2018-Apr-18 20:00N 43°04' E 009°14'918.5
2018-Apr-18 19:30N 43°04' E 009°27'18 1.2
2018-Apr-18 04:21N 42°47' E 009°35'719.5
2018-Apr-18 04:00N 42°54' E 009°34'1218.4
2018-Apr-18 03:22N 43°04' E 009°26'719.1
2018-Apr-18 03:00N 43°04' E 009°17'1019.5
2018-Apr-18 02:30N 43°04' E 009°04'1019.7
2018-Apr-18 02:00N 43°03' E 008°50'1019.5
2018-Apr-18 01:30N 43°02' E 008°37'919.2
2018-Apr-18 01:00N 43°01' E 008°24'1218.8
2018-Apr-18 00:23N 43°01' E 008°08'719.4
2018-Apr-18 00:00N 43°00' E 007°58'8718.6
2018-Apr-17 19:18N 43°04' E 005°58'310.7
2018-Apr-17 19:00N 43°06' E 005°55'1 1.1
2018-Apr-17 18:30N 43°07' E 005°56'0 0.0
2018-Apr-17 18:00N 43°07' E 005°56'0 0.0
2018-Apr-17 17:30N 43°07' E 005°56'0 0.0
2018-Apr-17 17:00N 43°07' E 005°56'0 0.0
2018-Apr-17 16:30N 43°07' E 005°56'0 0.0
2018-Apr-17 16:00N 43°07' E 005°56'0 0.0
2018-Apr-17 15:30N 43°07' E 005°56'0 0.0
2018-Apr-17 15:00N 43°07' E 005°56'0 0.0
2018-Apr-17 14:30N 43°07' E 005°56'0 0.0
2018-Apr-17 14:00N 43°07' E 005°56'0 0.0
2018-Apr-17 13:30N 43°07' E 005°56'0 0.0
2018-Apr-17 13:00N 43°07' E 005°56'0 0.0
2018-Apr-17 12:30N 43°07' E 005°56'0 0.0
2018-Apr-17 12:00N 43°07' E 005°56'0 0.0
2018-Apr-17 11:30N 43°07' E 005°56'0 0.0
2018-Apr-17 11:00N 43°07' E 005°56'0 0.0
2018-Apr-17 10:30N 43°07' E 005°56'0 0.0
2018-Apr-17 10:00N 43°07' E 005°56'0 0.0
2018-Apr-17 09:30N 43°07' E 005°56'0 0.0
2018-Apr-17 09:00N 43°07' E 005°56'0 0.0
2018-Apr-17 08:30N 43°07' E 005°56'0 0.0
2018-Apr-17 08:00N 43°07' E 005°56'0 0.0
2018-Apr-17 07:30N 43°07' E 005°56'0 0.0
2018-Apr-17 07:00N 43°07' E 005°56'0 0.0
2018-Apr-17 06:30N 43°07' E 005°56'0 0.0
2018-Apr-17 06:00N 43°07' E 005°56'0 0.0
2018-Apr-17 05:30N 43°07' E 005°56'0 0.1
2018-Apr-17 05:00N 43°07' E 005°56'911.1
2018-Apr-17 04:10N 42°59' E 006°03'417.2
2018-Apr-17 03:54N 42°57' E 006°08'716.7
2018-Apr-17 03:30N 42°56' E 006°17'816.6
2018-Apr-17 03:00N 42°56' E 006°28'917.2
2018-Apr-17 02:30N 42°56' E 006°40'918.3
2018-Apr-17 02:00N 42°57' E 006°52'918.6
2018-Apr-17 01:30N 42°58' E 007°05'918.3
2018-Apr-17 01:00N 42°59' E 007°17'918.0
2018-Apr-17 00:30N 42°60' E 007°30'918.1
2018-Apr-17 00:00N 43°00' E 007°42'918.0
2018-Apr-16 23:30N 43°00' E 007°54'917.8
2018-Apr-16 23:00N 43°01' E 008°06'919.0
2018-Apr-16 22:30N 43°01' E 008°19'918.8
2018-Apr-16 22:00N 43°02' E 008°32'918.3
2018-Apr-16 21:30N 43°02' E 008°45'918.1
2018-Apr-16 21:00N 43°03' E 008°57'917.9
2018-Apr-16 20:30N 43°03' E 009°09'918.1
2018-Apr-16 20:00N 43°04' E 009°22'917.0
2018-Apr-16 19:30N 43°01' E 009°32'918.9
2018-Apr-16 19:00N 42°51' E 009°34'1116.5
2018-Apr-16 18:22N 42°42' E 009°28'0 0.1
2018-Apr-16 16:14N 42°42' E 009°27'313.5
2018-Apr-16 16:01N 42°43' E 009°31'1019.3
2018-Apr-16 15:31N 42°49' E 009°41'1019.7
2018-Apr-16 15:00N 42°56' E 009°52'918.9
2018-Apr-16 14:31N 43°03' E 009°59'1019.9
2018-Apr-16 14:01N 43°13' E 010°03'1019.8
2018-Apr-16 13:31N 43°22' E 010°07'1019.2
2018-Apr-16 13:01N 43°31' E 010°13'4 8.7
2018-Apr-16 12:30N 43°33' E 010°18'0 0.0
2018-Apr-16 12:00N 43°33' E 010°18'0 0.0
2018-Apr-16 11:30N 43°33' E 010°18'0 0.0
2018-Apr-16 11:00N 43°33' E 010°18'0 0.0
2018-Apr-16 10:30N 43°33' E 010°18'1 2.5
2018-Apr-16 10:00N 43°32' E 010°17'713.2
2018-Apr-16 09:30N 43°27' E 010°12'1019.5
2018-Apr-16 09:00N 43°17' E 010°08'1019.4
2018-Apr-16 08:30N 43°08' E 010°03'1019.2
2018-Apr-16 08:00N 42°59' E 009°57'1019.2
2018-Apr-16 07:30N 42°53' E 009°48'11 2.8
2018-Apr-16 03:42N 42°55' E 009°34'419.6
2018-Apr-16 03:30N 42°59' E 009°33'918.1
2018-Apr-16 03:00N 43°04' E 009°22'1019.8
2018-Apr-16 02:30N 43°04' E 009°09'1019.9
2018-Apr-16 01:59N 43°03' E 008°55'5519.6
2018-Apr-15 23:09N 42°59' E 007°39'7418.8
2018-Apr-15 19:12N 43°04' E 005°58'212.3
2018-Apr-15 19:01N 43°05' E 005°55'2 3.1
2018-Apr-15 18:29N 43°07' E 005°56'0 0.0
2018-Apr-15 18:00N 43°07' E 005°56'0 0.0
2018-Apr-15 17:29N 43°07' E 005°56'0 0.0
2018-Apr-15 17:00N 43°07' E 005°56'0 0.0
2018-Apr-15 16:30N 43°07' E 005°56'0 0.0
2018-Apr-15 16:00N 43°07' E 005°56'0 0.0
2018-Apr-15 15:30N 43°07' E 005°56'0 0.0
2018-Apr-15 14:59N 43°07' E 005°56'0 0.0
2018-Apr-15 14:29N 43°07' E 005°56'0 0.0
2018-Apr-15 14:00N 43°07' E 005°56'0 0.0
2018-Apr-15 13:30N 43°07' E 005°56'0 0.0
2018-Apr-15 12:59N 43°07' E 005°56'0 0.0
2018-Apr-15 12:29N 43°07' E 005°56'0 0.0
2018-Apr-15 11:59N 43°07' E 005°56'0 0.0
2018-Apr-15 11:29N 43°07' E 005°56'0 0.0
2018-Apr-15 10:59N 43°07' E 005°56'0 0.0
2018-Apr-15 10:29N 43°07' E 005°56'0 0.0
2018-Apr-15 09:59N 43°07' E 005°56'0 0.0
2018-Apr-15 09:29N 43°07' E 005°56'0 0.0
2018-Apr-15 09:00N 43°07' E 005°56'0 0.0
2018-Apr-15 08:29N 43°07' E 005°56'0 0.0
2018-Apr-15 07:59N 43°07' E 005°56'0 0.0
2018-Apr-15 07:29N 43°07' E 005°56'0 0.0
2018-Apr-15 06:59N 43°07' E 005°56'0 0.0
2018-Apr-15 06:29N 43°07' E 005°56'0 0.3
2018-Apr-15 06:00N 43°07' E 005°56'4812.6
2018-Apr-15 02:13N 43°09' E 007°01'314.6
2018-Apr-15 02:00N 43°11' E 007°04'714.7
2018-Apr-15 01:30N 43°14' E 007°13'815.1
2018-Apr-15 01:01N 43°17' E 007°23'815.1
2018-Apr-15 00:30N 43°21' E 007°32'1116.7
2018-Apr-14 23:49N 43°27' E 007°46'917.0
2018-Apr-14 23:19N 43°31' E 007°56'618.2
2018-Apr-14 22:59N 43°34' E 008°03'1020.2
2018-Apr-14 22:30N 43°29' E 008°15'1020.1
2018-Apr-14 22:00N 43°24' E 008°26'1019.6
2018-Apr-14 21:30N 43°19' E 008°38'1019.1
2018-Apr-14 21:00N 43°14' E 008°50'919.2
2018-Apr-14 20:31N 43°10' E 009°01'1019.1
2018-Apr-14 20:00N 43°06' E 009°13'1019.6
2018-Apr-14 19:31N 43°04' E 009°26'918.5
2018-Apr-14 19:00N 42°56' E 009°34'15 1.1
2018-Apr-14 05:04N 42°42' E 009°28'617.6
2018-Apr-14 04:43N 42°46' E 009°33'419.1
2018-Apr-14 04:30N 42°51' E 009°34'1019.5
2018-Apr-14 04:00N 43°00' E 009°33'918.3
2018-Apr-14 03:30N 43°04' E 009°21'1119.2
2018-Apr-14 02:55N 43°04' E 009°06'1219.3
2018-Apr-14 02:18N 43°03' E 008°50'518.8
2018-Apr-14 02:00N 43°03' E 008°42'918.5
2018-Apr-14 01:30N 43°02' E 008°29'918.3
2018-Apr-14 01:00N 43°01' E 008°17'918.6
2018-Apr-14 00:30N 43°01' E 008°04'918.8
2018-Apr-14 00:00N 43°01' E 007°51'918.7
2018-Apr-13 23:30N 43°01' E 007°39'  

Dump ship's entire track history